sensor_id;sensor_type;location;lat;lon;timestamp;pressure;altitude;pressure_sealevel;temperature;humidity
23059;BME280;30585;51.502;7.218;2024-01-10T00:00:57;102112.19;;;-5.90;58.02
23059;BME280;30585;51.502;7.218;2024-01-10T00:03:24;102105.06;;;-5.95;58.05
23059;BME280;30585;51.502;7.218;2024-01-10T00:05:52;102118.19;;;-5.97;58.69
23059;BME280;30585;51.502;7.218;2024-01-10T00:08:20;102099.78;;;-5.97;58.15
23059;BME280;30585;51.502;7.218;2024-01-10T00:10:48;102111.22;;;-5.95;57.74
23059;BME280;30585;51.502;7.218;2024-01-10T00:13:17;102111.19;;;-5.96;57.17
23059;BME280;30585;51.502;7.218;2024-01-10T00:15:46;102109.38;;;-5.99;57.92
23059;BME280;30585;51.502;7.218;2024-01-10T00:18:13;102104.00;;;-6.05;59.78
23059;BME280;30585;51.502;7.218;2024-01-10T00:20:41;102100.41;;;-6.10;59.13
23059;BME280;30585;51.502;7.218;2024-01-10T00:23:09;102096.97;;;-6.06;59.33
23059;BME280;30585;51.502;7.218;2024-01-10T00:25:36;102094.31;;;-6.07;59.07
23059;BME280;30585;51.502;7.218;2024-01-10T00:28:05;102093.56;;;-6.02;58.15
23059;BME280;30585;51.502;7.218;2024-01-10T00:30:33;102094.53;;;-5.97;58.13
23059;BME280;30585;51.502;7.218;2024-01-10T00:33:02;102091.84;;;-6.00;57.60
23059;BME280;30585;51.502;7.218;2024-01-10T00:35:31;102089.19;;;-6.01;57.40
23059;BME280;30585;51.502;7.218;2024-01-10T00:37:58;102088.22;;;-6.05;57.95
23059;BME280;30585;51.502;7.218;2024-01-10T00:40:26;102089.88;;;-6.10;57.79
23059;BME280;30585;51.502;7.218;2024-01-10T00:42:54;102086.41;;;-6.10;57.64
23059;BME280;30585;51.502;7.218;2024-01-10T00:45:22;102091.63;;;-6.12;58.24
23059;BME280;30585;51.502;7.218;2024-01-10T00:47:49;102092.34;;;-6.19;58.71
23059;BME280;30585;51.502;7.218;2024-01-10T00:50:19;102084.34;;;-6.25;59.03
23059;BME280;30585;51.502;7.218;2024-01-10T00:52:47;102078.16;;;-6.29;58.94
23059;BME280;30585;51.502;7.218;2024-01-10T00:55:14;102086.81;;;-6.34;59.23
23059;BME280;30585;51.502;7.218;2024-01-10T00:57:42;102086.84;;;-6.31;59.84
23059;BME280;30585;51.502;7.218;2024-01-10T01:00:11;102074.63;;;-6.29;59.19
23059;BME280;30585;51.502;7.218;2024-01-10T01:02:40;102079.88;;;-6.29;59.91
23059;BME280;30585;51.502;7.218;2024-01-10T01:05:08;102080.72;;;-6.33;60.26
23059;BME280;30585;51.502;7.218;2024-01-10T01:07:37;102077.91;;;-6.42;60.77
23059;BME280;30585;51.502;7.218;2024-01-10T01:10:06;102085.84;;;-6.39;60.73
23059;BME280;30585;51.502;7.218;2024-01-10T01:12:35;102080.41;;;-6.47;61.32
23059;BME280;30585;51.502;7.218;2024-01-10T01:15:03;102076.03;;;-6.48;61.10
23059;BME280;30585;51.502;7.218;2024-01-10T01:17:31;102071.72;;;-6.44;60.72
23059;BME280;30585;51.502;7.218;2024-01-10T01:20:00;102069.97;;;-6.44;60.42
23059;BME280;30585;51.502;7.218;2024-01-10T01:22:31;102069.16;;;-6.41;61.02
23059;BME280;30585;51.502;7.218;2024-01-10T01:25:00;102061.28;;;-6.41;60.76
23059;BME280;30585;51.502;7.218;2024-01-10T01:27:28;102068.16;;;-6.48;61.21
23059;BME280;30585;51.502;7.218;2024-01-10T01:29:56;102071.66;;;-6.47;61.65
23059;BME280;30585;51.502;7.218;2024-01-10T01:32:24;102067.34;;;-6.44;61.39
23059;BME280;30585;51.502;7.218;2024-01-10T01:34:52;102065.75;;;-6.37;60.43
23059;BME280;30585;51.502;7.218;2024-01-10T01:37:20;102057.88;;;-6.37;60.60
23059;BME280;30585;51.502;7.218;2024-01-10T01:39:47;102056.88;;;-6.42;61.30
23059;BME280;30585;51.502;7.218;2024-01-10T01:42:17;102069.94;;;-6.45;61.28
23059;BME280;30585;51.502;7.218;2024-01-10T01:44:45;102055.03;;;-6.46;60.96
23059;BME280;30585;51.502;7.218;2024-01-10T01:47:13;102063.69;;;-6.52;61.64
23059;BME280;30585;51.502;7.218;2024-01-10T01:49:42;102058.47;;;-6.50;61.94
23059;BME280;30585;51.502;7.218;2024-01-10T01:52:10;102057.50;;;-6.56;62.09
23059;BME280;30585;51.502;7.218;2024-01-10T01:54:38;102051.28;;;-6.61;62.64
23059;BME280;30585;51.502;7.218;2024-01-10T01:57:06;102057.34;;;-6.63;62.03
23059;BME280;30585;51.502;7.218;2024-01-10T01:59:36;102057.31;;;-6.65;62.96
23059;BME280;30585;51.502;7.218;2024-01-10T02:02:04;102010.25;;;-6.98;63.01
23059;BME280;30585;51.502;7.218;2024-01-10T02:04:32;102052.81;;;-6.70;63.14
23059;BME280;30585;51.502;7.218;2024-01-10T02:07:00;102052.69;;;-6.76;63.54
23059;BME280;30585;51.502;7.218;2024-01-10T02:09:28;102049.03;;;-6.84;63.03
23059;BME280;30585;51.502;7.218;2024-01-10T02:11:55;102049.84;;;-6.87;63.47
23059;BME280;30585;51.502;7.218;2024-01-10T02:14:23;102051.66;;;-6.84;63.84
23059;BME280;30585;51.502;7.218;2024-01-10T02:16:53;102051.56;;;-6.89;64.28
23059;BME280;30585;51.502;7.218;2024-01-10T02:19:22;102044.47;;;-6.93;63.38
23059;BME280;30585;51.502;7.218;2024-01-10T02:21:50;102038.22;;;-6.98;64.26
23059;BME280;30585;51.502;7.218;2024-01-10T02:24:18;102041.66;;;-7.02;63.38
23059;BME280;30585;51.502;7.218;2024-01-10T02:26:47;102047.75;;;-7.03;64.76
23059;BME280;30585;51.502;7.218;2024-01-10T02:29:16;102025.69;;;-7.13;64.38
23059;BME280;30585;51.502;7.218;2024-01-10T02:31:44;102032.63;;;-7.15;63.95
23059;BME280;30585;51.502;7.218;2024-01-10T02:34:12;102036.97;;;-7.15;64.85
23059;BME280;30585;51.502;7.218;2024-01-10T02:36:40;102040.38;;;-7.19;64.23
23059;BME280;30585;51.502;7.218;2024-01-10T02:39:07;102034.16;;;-7.26;64.54
23059;BME280;30585;51.502;7.218;2024-01-10T02:41:35;102030.63;;;-7.27;65.12
23059;BME280;30585;51.502;7.218;2024-01-10T02:44:04;102035.72;;;-7.33;65.64
23059;BME280;30585;51.502;7.218;2024-01-10T02:46:32;102031.34;;;-7.34;66.11
23059;BME280;30585;51.502;7.218;2024-01-10T02:48:59;102032.38;;;-7.27;65.46
23059;BME280;30585;51.502;7.218;2024-01-10T02:51:27;102029.81;;;-7.22;66.13
23059;BME280;30585;51.502;7.218;2024-01-10T02:53:56;102018.41;;;-7.26;65.64
23059;BME280;30585;51.502;7.218;2024-01-10T02:56:24;102023.72;;;-7.21;65.29
23059;BME280;30585;51.502;7.218;2024-01-10T02:58:52;102028.00;;;-7.27;66.10
23059;BME280;30585;51.502;7.218;2024-01-10T03:01:22;102017.44;;;-7.30;65.02
23059;BME280;30585;51.502;7.218;2024-01-10T03:03:49;102023.56;;;-7.29;66.21
23059;BME280;30585;51.502;7.218;2024-01-10T03:06:17;102032.38;;;-7.27;66.40
23059;BME280;30585;51.502;7.218;2024-01-10T03:08:45;102013.97;;;-7.29;65.64
23059;BME280;30585;51.502;7.218;2024-01-10T03:11:13;102024.44;;;-7.30;66.15
23059;BME280;30585;51.502;7.218;2024-01-10T03:13:43;101981.25;;;-7.46;65.01
23059;BME280;30585;51.502;7.218;2024-01-10T03:16:13;102014.97;;;-7.23;65.66
23059;BME280;30585;51.502;7.218;2024-01-10T03:18:42;102004.38;;;-7.28;65.72
23059;BME280;30585;51.502;7.218;2024-01-10T03:21:10;102001.69;;;-7.31;66.09
23059;BME280;30585;51.502;7.218;2024-01-10T03:23:38;101996.47;;;-7.30;65.75
23059;BME280;30585;51.502;7.218;2024-01-10T03:26:05;101998.16;;;-7.32;66.33
23059;BME280;30585;51.502;7.218;2024-01-10T03:28:34;102000.66;;;-7.38;65.98
23059;BME280;30585;51.502;7.218;2024-01-10T03:31:02;101997.03;;;-7.43;66.56
23059;BME280;30585;51.502;7.218;2024-01-10T03:33:29;101999.66;;;-7.43;65.99
23059;BME280;30585;51.502;7.218;2024-01-10T03:35:59;101999.88;;;-7.34;66.72
23059;BME280;30585;51.502;7.218;2024-01-10T03:38:26;101994.38;;;-7.44;66.55
23059;BME280;30585;51.502;7.218;2024-01-10T03:40:54;102007.56;;;-7.41;66.53
23059;BME280;30585;51.502;7.218;2024-01-10T03:43:22;101999.56;;;-7.47;66.39
23059;BME280;30585;51.502;7.218;2024-01-10T03:45:49;102000.38;;;-7.50;67.78
23059;BME280;30585;51.502;7.218;2024-01-10T03:48:17;101997.72;;;-7.51;67.06
23059;BME280;30585;51.502;7.218;2024-01-10T03:50:45;102007.94;;;-7.62;67.51
23059;BME280;30585;51.502;7.218;2024-01-10T03:53:14;102004.09;;;-7.78;67.86
23059;BME280;30585;51.502;7.218;2024-01-10T03:55:42;102018.31;;;-7.68;68.04
23059;BME280;30585;51.502;7.218;2024-01-10T03:58:10;102017.47;;;-7.66;67.89
23059;BME280;30585;51.502;7.218;2024-01-10T04:00:37;102019.16;;;-7.68;68.64
23059;BME280;30585;51.502;7.218;2024-01-10T04:03:05;102012.13;;;-7.72;68.88
23059;BME280;30585;51.502;7.218;2024-01-10T04:05:33;102007.63;;;-7.76;68.49
23059;BME280;30585;51.502;7.218;2024-01-10T04:08:01;102012.13;;;-7.72;69.56
23059;BME280;30585;51.502;7.218;2024-01-10T04:10:31;102015.47;;;-7.77;68.99
23059;BME280;30585;51.502;7.218;2024-01-10T04:12:59;102011.63;;;-7.91;69.86
23059;BME280;30585;51.502;7.218;2024-01-10T04:15:27;102019.38;;;-7.96;70.31
23059;BME280;30585;51.502;7.218;2024-01-10T04:17:54;102004.97;;;-8.12;69.97
23059;BME280;30585;51.502;7.218;2024-01-10T04:20:22;102010.31;;;-8.09;69.75
23059;BME280;30585;51.502;7.218;2024-01-10T04:22:50;102012.06;;;-8.08;70.33
23059;BME280;30585;51.502;7.218;2024-01-10T04:25:18;101997.94;;;-8.16;70.07
23059;BME280;30585;51.502;7.218;2024-01-10T04:27:47;102004.94;;;-8.15;70.31
23059;BME280;30585;51.502;7.218;2024-01-10T04:30:16;102000.34;;;-8.23;70.58
23059;BME280;30585;51.502;7.218;2024-01-10T04:32:44;102013.63;;;-8.16;71.16
23059;BME280;30585;51.502;7.218;2024-01-10T04:35:12;102012.84;;;-8.13;70.48
23059;BME280;30585;51.502;7.218;2024-01-10T04:37:39;102011.88;;;-8.17;70.33
23059;BME280;30585;51.502;7.218;2024-01-10T04:40:08;102014.56;;;-8.14;70.06
23059;BME280;30585;51.502;7.218;2024-01-10T04:42:36;102020.56;;;-8.18;70.13
23059;BME280;30585;51.502;7.218;2024-01-10T04:45:06;102006.25;;;-8.31;71.00
23059;BME280;30585;51.502;7.218;2024-01-10T04:47:34;102012.28;;;-8.36;70.52
23059;BME280;30585;51.502;7.218;2024-01-10T04:50:02;102014.09;;;-8.31;70.19
23059;BME280;30585;51.502;7.218;2024-01-10T04:52:33;102016.63;;;-8.37;70.89
23059;BME280;30585;51.502;7.218;2024-01-10T04:55:01;102002.66;;;-8.37;70.80
23059;BME280;30585;51.502;7.218;2024-01-10T04:57:32;101997.47;;;-8.34;70.17
23059;BME280;30585;51.502;7.218;2024-01-10T04:59:59;101996.72;;;-8.29;70.34
23059;BME280;30585;51.502;7.218;2024-01-10T05:02:28;101996.06;;;-8.20;70.07
23059;BME280;30585;51.502;7.218;2024-01-10T05:04:56;102003.00;;;-8.22;70.32
23059;BME280;30585;51.502;7.218;2024-01-10T05:07:24;101989.88;;;-8.23;70.29
23059;BME280;30585;51.502;7.218;2024-01-10T05:09:52;101991.75;;;-8.18;70.31
23059;BME280;30585;51.502;7.218;2024-01-10T05:12:20;101975.81;;;-8.27;70.09
23059;BME280;30585;51.502;7.218;2024-01-10T05:14:48;101996.22;;;-8.14;69.72
23059;BME280;30585;51.502;7.218;2024-01-10T05:17:15;101995.41;;;-8.11;69.75
23059;BME280;30585;51.502;7.218;2024-01-10T05:19:44;101991.94;;;-8.10;69.48
23059;BME280;30585;51.502;7.218;2024-01-10T05:22:13;102001.69;;;-8.05;69.48
23059;BME280;30585;51.502;7.218;2024-01-10T05:24:40;101988.59;;;-8.05;69.64
23059;BME280;30585;51.502;7.218;2024-01-10T05:27:08;102003.44;;;-8.04;69.47
23059;BME280;30585;51.502;7.218;2024-01-10T05:29:36;101902.63;;;-8.58;69.38
23059;BME280;30585;51.502;7.218;2024-01-10T05:32:04;101980.75;;;-8.03;69.50
23059;BME280;30585;51.502;7.218;2024-01-10T05:34:32;101993.78;;;-8.06;69.09
23059;BME280;30585;51.502;7.218;2024-01-10T05:37:02;101992.94;;;-8.05;68.79
23059;BME280;30585;51.502;7.218;2024-01-10T05:39:30;101985.88;;;-8.08;69.25
23059;BME280;30585;51.502;7.218;2024-01-10T05:41:59;101979.63;;;-8.13;68.81
23059;BME280;30585;51.502;7.218;2024-01-10T05:44:29;101982.25;;;-8.13;69.43
23059;BME280;30585;51.502;7.218;2024-01-10T05:46:57;101986.47;;;-8.19;68.91
23059;BME280;30585;51.502;7.218;2024-01-10T05:49:26;102006.78;;;-8.09;69.55
23059;BME280;30585;51.502;7.218;2024-01-10T05:51:54;102002.41;;;-8.10;70.02
23059;BME280;30585;51.502;7.218;2024-01-10T05:54:23;101999.06;;;-8.05;69.40
23059;BME280;30585;51.502;7.218;2024-01-10T05:56:51;101997.31;;;-8.04;69.62
23059;BME280;30585;51.502;7.218;2024-01-10T05:59:19;101989.50;;;-8.03;69.14
23059;BME280;30585;51.502;7.218;2024-01-10T06:01:46;101987.53;;;-8.11;69.33
23059;BME280;30585;51.502;7.218;2024-01-10T06:04:14;101989.31;;;-8.10;69.72
23059;BME280;30585;51.502;7.218;2024-01-10T06:06:42;101986.69;;;-8.10;69.36
23059;BME280;30585;51.502;7.218;2024-01-10T06:09:11;101978.75;;;-8.15;69.78
23059;BME280;30585;51.502;7.218;2024-01-10T06:11:43;101976.97;;;-8.16;69.92
23059;BME280;30585;51.502;7.218;2024-01-10T06:14:11;102002.44;;;-8.09;69.64
23059;BME280;30585;51.502;7.218;2024-01-10T06:16:38;101992.91;;;-8.07;69.66
23059;BME280;30585;51.502;7.218;2024-01-10T06:19:10;101960.94;;;-8.28;69.40
23059;BME280;30585;51.502;7.218;2024-01-10T06:21:38;101984.91;;;-8.11;69.94
23059;BME280;30585;51.502;7.218;2024-01-10T06:24:06;101978.91;;;-8.07;69.63
23059;BME280;30585;51.502;7.218;2024-01-10T06:26:34;101981.72;;;-8.00;69.57
23059;BME280;30585;51.502;7.218;2024-01-10T06:29:03;101983.63;;;-7.94;69.36
23059;BME280;30585;51.502;7.218;2024-01-10T06:31:31;101985.44;;;-7.91;69.08
23059;BME280;30585;51.502;7.218;2024-01-10T06:33:59;101987.16;;;-7.90;69.23
23059;BME280;30585;51.502;7.218;2024-01-10T06:36:26;101989.47;;;-8.04;69.36
23059;BME280;30585;51.502;7.218;2024-01-10T06:38:54;101994.91;;;-7.97;69.35
23059;BME280;30585;51.502;7.218;2024-01-10T06:41:22;101979.31;;;-7.90;69.28
23059;BME280;30585;51.502;7.218;2024-01-10T06:43:51;101969.84;;;-7.85;69.71
23059;BME280;30585;51.502;7.218;2024-01-10T06:46:21;101970.66;;;-7.88;69.47
23059;BME280;30585;51.502;7.218;2024-01-10T06:48:48;101989.09;;;-7.83;69.80
23059;BME280;30585;51.502;7.218;2024-01-10T06:51:16;101995.06;;;-7.89;69.87
23059;BME280;30585;51.502;7.218;2024-01-10T06:53:44;101992.41;;;-7.90;69.28
23059;BME280;30585;51.502;7.218;2024-01-10T06:56:12;101994.16;;;-7.93;70.07
23059;BME280;30585;51.502;7.218;2024-01-10T06:58:39;101985.31;;;-7.96;70.44
23059;BME280;30585;51.502;7.218;2024-01-10T07:01:11;101977.41;;;-7.98;69.80
23059;BME280;30585;51.502;7.218;2024-01-10T07:03:41;101978.53;;;-7.86;69.87
23059;BME280;30585;51.502;7.218;2024-01-10T07:06:11;101989.91;;;-7.86;69.73
23059;BME280;30585;51.502;7.218;2024-01-10T07:08:42;101985.53;;;-7.87;70.08
23059;BME280;30585;51.502;7.218;2024-01-10T07:11:11;101995.28;;;-7.81;69.81
23059;BME280;30585;51.502;7.218;2024-01-10T07:13:39;101988.09;;;-7.88;69.88
23059;BME280;30585;51.502;7.218;2024-01-10T07:16:07;101992.56;;;-7.84;69.27
23059;BME280;30585;51.502;7.218;2024-01-10T07:18:35;101990.03;;;-7.81;69.95
23059;BME280;30585;51.502;7.218;2024-01-10T07:21:05;101979.63;;;-7.78;69.78
23059;BME280;30585;51.502;7.218;2024-01-10T07:23:32;101989.44;;;-7.70;69.58
23059;BME280;30585;51.502;7.218;2024-01-10T07:26:01;101980.75;;;-7.69;69.91
23059;BME280;30585;51.502;7.218;2024-01-10T07:28:30;101984.25;;;-7.67;69.27
23059;BME280;30585;51.502;7.218;2024-01-10T07:30:59;101976.34;;;-7.70;69.59
23059;BME280;30585;51.502;7.218;2024-01-10T07:33:28;101988.72;;;-7.63;68.83
23059;BME280;30585;51.502;7.218;2024-01-10T07:35:57;101978.94;;;-7.71;69.31
23059;BME280;30585;51.502;7.218;2024-01-10T07:38:26;101983.44;;;-7.64;69.68
23059;BME280;30585;51.502;7.218;2024-01-10T07:40:54;101985.22;;;-7.63;69.71
23059;BME280;30585;51.502;7.218;2024-01-10T07:43:22;101978.16;;;-7.66;68.94
23059;BME280;30585;51.502;7.218;2024-01-10T07:45:49;101990.59;;;-7.57;69.40
23059;BME280;30585;51.502;7.218;2024-01-10T07:48:17;101985.28;;;-7.60;68.85
23059;BME280;30585;51.502;7.218;2024-01-10T07:50:45;101982.75;;;-7.57;69.02
23059;BME280;30585;51.502;7.218;2024-01-10T07:53:12;101983.53;;;-7.60;68.78
23059;BME280;30585;51.502;7.218;2024-01-10T07:55:42;101974.81;;;-7.60;68.87
23059;BME280;30585;51.502;7.218;2024-01-10T07:58:09;101972.19;;;-7.60;69.12
23059;BME280;30585;51.502;7.218;2024-01-10T08:00:37;101969.63;;;-7.57;69.50
23059;BME280;30585;51.502;7.218;2024-01-10T08:03:05;101970.56;;;-7.55;69.44
23059;BME280;30585;51.502;7.218;2024-01-10T08:05:33;101970.78;;;-7.46;68.59
23059;BME280;30585;51.502;7.218;2024-01-10T08:08:01;101967.34;;;-7.42;68.92
23059;BME280;30585;51.502;7.218;2024-01-10T08:10:30;101957.66;;;-7.44;68.51
23059;BME280;30585;51.502;7.218;2024-01-10T08:13:01;101972.75;;;-7.34;68.41
23059;BME280;30585;51.502;7.218;2024-01-10T08:15:29;101969.31;;;-7.32;68.24
23059;BME280;30585;51.502;7.218;2024-01-10T08:17:58;101971.28;;;-7.23;68.33
23059;BME280;30585;51.502;7.218;2024-01-10T08:20:25;101968.63;;;-7.25;68.59
23059;BME280;30585;51.502;7.218;2024-01-10T08:22:53;101956.34;;;-7.26;67.99
23059;BME280;30585;51.502;7.218;2024-01-10T08:25:22;101970.50;;;-7.17;68.41
23059;BME280;30585;51.502;7.218;2024-01-10T08:27:50;101929.09;;;-7.32;67.58
23059;BME280;30585;51.502;7.218;2024-01-10T08:30:21;101969.88;;;-7.06;67.62
23059;BME280;30585;51.502;7.218;2024-01-10T08:32:51;101979.63;;;-6.99;67.02
23059;BME280;30585;51.502;7.218;2024-01-10T08:35:20;101942.53;;;-7.17;67.15
23059;BME280;30585;51.502;7.218;2024-01-10T08:37:53;101974.56;;;-6.90;67.37
23059;BME280;30585;51.502;7.218;2024-01-10T08:40:22;101970.38;;;-6.81;67.00
23059;BME280;30585;51.502;7.218;2024-01-10T08:42:51;101969.47;;;-6.82;66.91
23059;BME280;30585;51.502;7.218;2024-01-10T08:45:20;101973.94;;;-6.76;66.61
23059;BME280;30585;51.502;7.218;2024-01-10T08:47:48;101982.81;;;-6.70;66.73
23059;BME280;30585;51.502;7.218;2024-01-10T08:50:16;101982.88;;;-6.67;67.16
23059;BME280;30585;51.502;7.218;2024-01-10T08:52:44;101983.94;;;-6.59;66.29
23059;BME280;30585;51.502;7.218;2024-01-10T08:55:12;101977.84;;;-6.55;65.78
23059;BME280;30585;51.502;7.218;2024-01-10T08:57:40;101992.00;;;-6.48;65.54
23059;BME280;30585;51.502;7.218;2024-01-10T09:00:09;102001.66;;;-6.45;65.66
23059;BME280;30585;51.502;7.218;2024-01-10T09:02:40;102001.78;;;-6.39;65.41
23059;BME280;30585;51.502;7.218;2024-01-10T09:05:08;102001.03;;;-6.34;66.35
23059;BME280;30585;51.502;7.218;2024-01-10T09:07:37;102009.09;;;-6.23;65.27
23059;BME280;30585;51.502;7.218;2024-01-10T09:10:06;102006.69;;;-6.09;64.77
23059;BME280;30585;51.502;7.218;2024-01-10T09:12:35;101987.16;;;-6.25;64.58
23059;BME280;30585;51.502;7.218;2024-01-10T09:15:03;102014.69;;;-6.03;64.10
23059;BME280;30585;51.502;7.218;2024-01-10T09:17:31;102005.88;;;-6.05;65.44
23059;BME280;30585;51.502;7.218;2024-01-10T09:20:00;102008.63;;;-5.99;65.33
23059;BME280;30585;51.502;7.218;2024-01-10T09:22:30;102007.81;;;-5.95;64.56
23059;BME280;30585;51.502;7.218;2024-01-10T09:24:58;102003.53;;;-5.87;64.68
23059;BME280;30585;51.502;7.218;2024-01-10T09:27:30;102005.47;;;-5.77;65.17
23059;BME280;30585;51.502;7.218;2024-01-10T09:29:57;102004.72;;;-5.68;65.52
23059;BME280;30585;51.502;7.218;2024-01-10T09:32:25;102007.50;;;-5.58;64.53
23059;BME280;30585;51.502;7.218;2024-01-10T09:34:53;102012.94;;;-5.47;64.14
23059;BME280;30585;51.502;7.218;2024-01-10T09:37:22;102016.50;;;-5.42;63.34
23059;BME280;30585;51.502;7.218;2024-01-10T09:39:50;102016.56;;;-5.37;62.71
23059;BME280;30585;51.502;7.218;2024-01-10T09:42:19;101974.31;;;-5.49;62.54
23059;BME280;30585;51.502;7.218;2024-01-10T09:44:48;101992.97;;;-5.33;62.22
23059;BME280;30585;51.502;7.218;2024-01-10T09:47:16;102009.00;;;-5.14;62.90
23059;BME280;30585;51.502;7.218;2024-01-10T09:49:44;102017.06;;;-5.04;63.20
23059;BME280;30585;51.502;7.218;2024-01-10T09:52:19;102012.66;;;-5.05;62.59
23059;BME280;30585;51.502;7.218;2024-01-10T09:54:52;102018.09;;;-4.91;62.76
23059;BME280;30585;51.502;7.218;2024-01-10T09:57:21;102019.97;;;-4.83;62.57
23059;BME280;30585;51.502;7.218;2024-01-10T09:59:50;102020.06;;;-4.75;61.62
23059;BME280;30585;51.502;7.218;2024-01-10T10:02:19;102011.34;;;-4.68;61.26
23059;BME280;30585;51.502;7.218;2024-01-10T10:04:54;102017.63;;;-4.58;62.30
23059;BME280;30585;51.502;7.218;2024-01-10T10:07:24;102024.75;;;-4.48;62.36
23059;BME280;30585;51.502;7.218;2024-01-10T10:09:54;102020.44;;;-4.41;61.29
23059;BME280;30585;51.502;7.218;2024-01-10T10:12:43;102021.41;;;-4.33;61.95
23059;BME280;30585;51.502;7.218;2024-01-10T10:15:12;102001.09;;;-4.43;59.96
23059;BME280;30585;51.502;7.218;2024-01-10T10:17:42;102011.03;;;-4.18;61.36
23059;BME280;30585;51.502;7.218;2024-01-10T10:20:13;102008.41;;;-4.15;61.61
23059;BME280;30585;51.502;7.218;2024-01-10T10:22:57;101996.13;;;-4.13;60.77
23059;BME280;30585;51.502;7.218;2024-01-10T10:25:29;101999.69;;;-4.06;60.64
23059;BME280;30585;51.502;7.218;2024-01-10T10:27:58;102006.88;;;-3.92;61.28
23059;BME280;30585;51.502;7.218;2024-01-10T10:30:26;101999.88;;;-3.87;61.58
23059;BME280;30585;51.502;7.218;2024-01-10T10:32:54;102003.47;;;-3.75;60.78
23059;BME280;30585;51.502;7.218;2024-01-10T10:35:23;102002.59;;;-3.78;59.19
23059;BME280;30585;51.502;7.218;2024-01-10T10:38:07;102006.22;;;-3.66;58.87
23059;BME280;30585;51.502;7.218;2024-01-10T10:40:38;101996.56;;;-3.60;59.08
23059;BME280;30585;51.502;7.218;2024-01-10T10:43:12;101992.22;;;-3.52;58.63
23059;BME280;30585;51.502;7.218;2024-01-10T10:45:46;101989.66;;;-3.44;59.28
23059;BME280;30585;51.502;7.218;2024-01-10T10:48:17;101987.06;;;-3.33;59.47
23059;BME280;30585;51.502;7.218;2024-01-10T10:51:05;101985.31;;;-3.30;57.62
23059;BME280;30585;51.502;7.218;2024-01-10T10:53:34;101985.38;;;-3.22;58.86
23059;BME280;30585;51.502;7.218;2024-01-10T10:56:06;101981.91;;;-3.11;59.06
23059;BME280;30585;51.502;7.218;2024-01-10T10:58:43;101980.22;;;-2.99;57.50
23059;BME280;30585;51.502;7.218;2024-01-10T11:01:12;101885.84;;;-3.46;59.57
23059;BME280;30585;51.502;7.218;2024-01-10T11:03:41;101976.78;;;-2.76;58.09
23059;BME280;30585;51.502;7.218;2024-01-10T11:06:11;101969.75;;;-2.66;56.66
23059;BME280;30585;51.502;7.218;2024-01-10T11:08:43;101978.59;;;-2.58;58.68
23059;BME280;30585;51.502;7.218;2024-01-10T11:11:24;101976.88;;;-2.50;57.67
23059;BME280;30585;51.502;7.218;2024-01-10T11:14:09;101986.53;;;-2.46;56.48
23059;BME280;30585;51.502;7.218;2024-01-10T11:17:07;101981.28;;;-2.39;56.26
23059;BME280;30585;51.502;7.218;2024-01-10T11:20:05;101973.38;;;-2.29;57.53
23059;BME280;30585;51.502;7.218;2024-01-10T11:22:52;101977.78;;;-2.17;54.84
23059;BME280;30585;51.502;7.218;2024-01-10T11:25:25;101984.88;;;-2.10;54.89
23059;BME280;30585;51.502;7.218;2024-01-10T11:27:57;101988.41;;;-2.08;56.35
23059;BME280;30585;51.502;7.218;2024-01-10T11:30:32;101980.44;;;-2.00;56.50
23059;BME280;30585;51.502;7.218;2024-01-10T11:33:02;101971.63;;;-1.95;56.51
23059;BME280;30585;51.502;7.218;2024-01-10T11:35:30;101974.28;;;-1.86;55.85
23059;BME280;30585;51.502;7.218;2024-01-10T11:37:59;101969.84;;;-1.78;56.01
23059;BME280;30585;51.502;7.218;2024-01-10T11:40:48;101964.56;;;-1.70;55.82
23059;BME280;30585;51.502;7.218;2024-01-10T11:43:17;101961.94;;;-1.62;55.82
23059;BME280;30585;51.502;7.218;2024-01-10T11:45:50;101949.56;;;-1.60;54.88
23059;BME280;30585;51.502;7.218;2024-01-10T11:48:26;101949.53;;;-1.54;55.06
23059;BME280;30585;51.502;7.218;2024-01-10T11:50:54;101956.59;;;-1.47;55.16
23059;BME280;30585;51.502;7.218;2024-01-10T11:53:38;101948.66;;;-1.44;54.22
23059;BME280;30585;51.502;7.218;2024-01-10T11:56:12;101939.78;;;-1.34;53.77
23059;BME280;30585;51.502;7.218;2024-01-10T11:59:01;101951.25;;;-1.30;53.64
23059;BME280;30585;51.502;7.218;2024-01-10T12:01:29;101943.31;;;-1.30;54.30
23059;BME280;30585;51.502;7.218;2024-01-10T12:03:58;101951.22;;;-1.18;54.26
23059;BME280;30585;51.502;7.218;2024-01-10T12:06:44;101946.81;;;-1.16;52.21
23059;BME280;30585;51.502;7.218;2024-01-10T12:09:13;101953.00;;;-1.20;52.08
23059;BME280;30585;51.502;7.218;2024-01-10T12:11:41;101949.47;;;-1.15;52.30
23059;BME280;30585;51.502;7.218;2024-01-10T12:14:10;101941.47;;;-1.12;53.53
23059;BME280;30585;51.502;7.218;2024-01-10T12:16:39;101951.19;;;-1.09;52.41
23059;BME280;30585;51.502;7.218;2024-01-10T12:19:06;101954.69;;;-0.96;52.75
23059;BME280;30585;51.502;7.218;2024-01-10T12:21:35;101946.69;;;-0.90;52.30
23059;BME280;30585;51.502;7.218;2024-01-10T12:24:03;101957.28;;;-0.90;53.44
23059;BME280;30585;51.502;7.218;2024-01-10T12:26:32;101959.03;;;-0.88;52.47
23059;BME280;30585;51.502;7.218;2024-01-10T12:29:00;101959.91;;;-0.86;52.87
23059;BME280;30585;51.502;7.218;2024-01-10T12:31:30;101952.84;;;-0.87;52.91
23059;BME280;30585;51.502;7.218;2024-01-10T12:33:58;101930.75;;;-0.80;51.53
23059;BME280;30585;51.502;7.218;2024-01-10T12:36:26;101943.91;;;-0.66;51.28
23059;BME280;30585;51.502;7.218;2024-01-10T12:38:54;101947.44;;;-0.64;52.19
23059;BME280;30585;51.502;7.218;2024-01-10T12:41:23;101942.09;;;-0.55;52.89
23059;BME280;30585;51.502;7.218;2024-01-10T12:43:52;101940.28;;;-0.48;50.43
23059;BME280;30585;51.502;7.218;2024-01-10T12:46:22;101937.66;;;-0.50;51.26
23059;BME280;30585;51.502;7.218;2024-01-10T12:49:00;101902.38;;;-0.65;51.46
23059;BME280;30585;51.502;7.218;2024-01-10T12:51:28;101936.66;;;-0.37;50.74
23059;BME280;30585;51.502;7.218;2024-01-10T12:53:57;101934.00;;;-0.32;50.51
23059;BME280;30585;51.502;7.218;2024-01-10T12:56:26;101929.56;;;-0.31;51.64
23059;BME280;30585;51.502;7.218;2024-01-10T12:58:55;101940.09;;;-0.22;51.95
23059;BME280;30585;51.502;7.218;2024-01-10T13:01:24;101945.34;;;-0.13;51.19